sensor_id;sensor_type;location;lat;lon;timestamp;pressure;altitude;pressure_sealevel;temperature;humidity
41140;BME280;26881;48.784;9.192;2022-07-29T00:02:32;98416.63;;;21.40;72.86
41140;BME280;26881;48.784;9.192;2022-07-29T00:07:54;98406.09;;;21.39;73.16
41140;BME280;26881;48.784;9.192;2022-07-29T00:13:16;98397.81;;;21.42;72.59
41140;BME280;26881;48.784;9.192;2022-07-29T00:18:37;98388.84;;;21.43;73.50
41140;BME280;26881;48.784;9.192;2022-07-29T00:24:00;98389.47;;;21.37;73.75
41140;BME280;26881;48.784;9.192;2022-07-29T00:29:22;98386.13;;;21.35;74.13
41140;BME280;26881;48.784;9.192;2022-07-29T00:34:54;98388.78;;;21.26;75.21
41140;BME280;26881;48.784;9.192;2022-07-29T00:40:35;98389.44;;;21.20;75.84
41140;BME280;26881;48.784;9.192;2022-07-29T00:46:00;98386.28;;;21.25;75.73
41140;BME280;26881;48.784;9.192;2022-07-29T00:51:22;98377.44;;;21.16;75.89
41140;BME280;26881;48.784;9.192;2022-07-29T00:56:44;98374.31;;;21.13;76.59
41140;BME280;26881;48.784;9.192;2022-07-29T01:02:05;98373.81;;;21.17;76.45
41140;BME280;26881;48.784;9.192;2022-07-29T01:07:28;98364.34;;;21.15;76.35
41140;BME280;26881;48.784;9.192;2022-07-29T01:12:52;98353.69;;;21.23;75.42
41140;BME280;26881;48.784;9.192;2022-07-29T01:18:20;98350.69;;;21.10;75.85
41140;BME280;26881;48.784;9.192;2022-07-29T01:23:51;98361.81;;;21.05;75.29
41140;BME280;26881;48.784;9.192;2022-07-29T01:29:28;98350.03;;;21.08;74.97
41140;BME280;26881;48.784;9.192;2022-07-29T01:35:25;98353.00;;;20.96;75.36
41140;BME280;26881;48.784;9.192;2022-07-29T01:40:51;98346.16;;;20.94;75.97
41140;BME280;26881;48.784;9.192;2022-07-29T01:46:19;98357.78;;;20.84;76.40
41140;BME280;26881;48.784;9.192;2022-07-29T01:51:52;98351.28;;;20.87;76.34
41140;BME280;26881;48.784;9.192;2022-07-29T01:57:18;98358.06;;;20.81;76.31
41140;BME280;26881;48.784;9.192;2022-07-29T02:02:43;98354.41;;;20.74;76.71
41140;BME280;26881;48.784;9.192;2022-07-29T02:08:07;98346.78;;;20.79;76.39
41140;BME280;26881;48.784;9.192;2022-07-29T02:13:31;98345.13;;;20.78;76.44
41140;BME280;26881;48.784;9.192;2022-07-29T02:18:55;98334.81;;;20.75;75.88
41140;BME280;26881;48.784;9.192;2022-07-29T02:24:20;98327.19;;;20.72;75.68
41140;BME280;26881;48.784;9.192;2022-07-29T02:29:42;98325.81;;;20.68;75.47
41140;BME280;26881;48.784;9.192;2022-07-29T02:35:08;98333.31;;;20.73;75.42
41140;BME280;26881;48.784;9.192;2022-07-29T02:40:30;98330.13;;;20.61;76.51
41140;BME280;26881;48.784;9.192;2022-07-29T02:45:53;98331.28;;;20.67;76.07
41140;BME280;26881;48.784;9.192;2022-07-29T02:51:19;98327.97;;;20.65;76.18
41140;BME280;26881;48.784;9.192;2022-07-29T02:57:09;98338.28;;;20.68;75.33
41140;BME280;26881;48.784;9.192;2022-07-29T03:02:34;98341.78;;;20.68;74.99
41140;BME280;26881;48.784;9.192;2022-07-29T03:08:01;98347.72;;;20.62;75.15
41140;BME280;26881;48.784;9.192;2022-07-29T03:13:23;98345.53;;;20.57;75.71
41140;BME280;26881;48.784;9.192;2022-07-29T03:18:47;98343.56;;;20.59;75.89
41140;BME280;26881;48.784;9.192;2022-07-29T03:24:08;98350.22;;;20.63;75.73
41140;BME280;26881;48.784;9.192;2022-07-29T03:29:32;98339.41;;;20.65;75.62
41140;BME280;26881;48.784;9.192;2022-07-29T03:34:55;98343.03;;;20.56;76.07
41140;BME280;26881;48.784;9.192;2022-07-29T03:40:22;98345.00;;;20.54;76.12
41140;BME280;26881;48.784;9.192;2022-07-29T03:45:47;98349.66;;;20.52;75.57
41140;BME280;26881;48.784;9.192;2022-07-29T03:51:11;98355.94;;;20.51;75.59
41140;BME280;26881;48.784;9.192;2022-07-29T03:56:36;98351.69;;;20.58;74.93
41140;BME280;26881;48.784;9.192;2022-07-29T04:02:01;98353.94;;;20.53;75.20
41140;BME280;26881;48.784;9.192;2022-07-29T04:07:24;98359.50;;;20.59;75.00
41140;BME280;26881;48.784;9.192;2022-07-29T04:12:46;98359.03;;;20.38;75.63
41140;BME280;26881;48.784;9.192;2022-07-29T04:18:07;98357.81;;;20.32;75.93
41140;BME280;26881;48.784;9.192;2022-07-29T04:23:29;98363.13;;;20.32;75.59
41140;BME280;26881;48.784;9.192;2022-07-29T04:28:54;98358.72;;;20.41;74.69
41140;BME280;26881;48.784;9.192;2022-07-29T04:34:16;98364.16;;;20.39;74.79
41140;BME280;26881;48.784;9.192;2022-07-29T04:39:39;98360.88;;;20.37;75.26
41140;BME280;26881;48.784;9.192;2022-07-29T04:45:01;98358.16;;;20.29;74.72
41140;BME280;26881;48.784;9.192;2022-07-29T04:50:23;98359.66;;;20.32;74.43
41140;BME280;26881;48.784;9.192;2022-07-29T04:55:44;98369.19;;;20.42;74.11
41140;BME280;26881;48.784;9.192;2022-07-29T05:01:06;98365.50;;;20.35;75.87
41140;BME280;26881;48.784;9.192;2022-07-29T05:06:28;98367.16;;;20.36;75.16
41140;BME280;26881;48.784;9.192;2022-07-29T05:11:50;98365.53;;;20.43;75.57
41140;BME280;26881;48.784;9.192;2022-07-29T05:17:12;98370.53;;;20.47;75.97
41140;BME280;26881;48.784;9.192;2022-07-29T05:22:34;98371.13;;;20.58;75.36
41140;BME280;26881;48.784;9.192;2022-07-29T05:27:55;98366.31;;;20.62;73.91
41140;BME280;26881;48.784;9.192;2022-07-29T05:33:17;98366.50;;;20.69;72.02
41140;BME280;26881;48.784;9.192;2022-07-29T05:38:57;98369.38;;;20.75;70.97
41140;BME280;26881;48.784;9.192;2022-07-29T05:44:19;98366.72;;;20.83;70.78
41140;BME280;26881;48.784;9.192;2022-07-29T05:49:45;98367.75;;;20.91;71.33
41140;BME280;26881;48.784;9.192;2022-07-29T05:55:08;98378.91;;;21.02;70.64
41140;BME280;26881;48.784;9.192;2022-07-29T06:00:30;98382.44;;;21.11;69.02
41140;BME280;26881;48.784;9.192;2022-07-29T06:05:52;98373.13;;;21.23;68.81
41140;BME280;26881;48.784;9.192;2022-07-29T06:11:14;98387.13;;;21.34;68.48
41140;BME280;26881;48.784;9.192;2022-07-29T06:16:36;98392.34;;;21.43;68.23
41140;BME280;26881;48.784;9.192;2022-07-29T06:21:58;98390.69;;;21.51;67.82
41140;BME280;26881;48.784;9.192;2022-07-29T06:27:20;98390.53;;;21.60;67.42
41140;BME280;26881;48.784;9.192;2022-07-29T06:32:41;98391.53;;;21.67;66.50
41140;BME280;26881;48.784;9.192;2022-07-29T06:38:04;98398.88;;;21.82;66.97
41140;BME280;26881;48.784;9.192;2022-07-29T06:43:46;98394.19;;;21.92;66.26
41140;BME280;26881;48.784;9.192;2022-07-29T06:49:15;98400.50;;;21.99;66.91
41140;BME280;26881;48.784;9.192;2022-07-29T06:54:37;98399.00;;;22.05;66.89
41140;BME280;26881;48.784;9.192;2022-07-29T07:00:00;98400.69;;;22.06;66.70
41140;BME280;26881;48.784;9.192;2022-07-29T07:05:22;98408.16;;;22.10;65.69
41140;BME280;26881;48.784;9.192;2022-07-29T07:10:44;98410.13;;;22.17;65.73
41140;BME280;26881;48.784;9.192;2022-07-29T07:16:05;98405.19;;;22.22;65.30
41140;BME280;26881;48.784;9.192;2022-07-29T07:21:28;98404.50;;;22.28;65.30
41140;BME280;26881;48.784;9.192;2022-07-29T07:26:51;98421.00;;;22.32;65.21
41140;BME280;26881;48.784;9.192;2022-07-29T07:32:13;98411.97;;;22.33;66.76
41140;BME280;26881;48.784;9.192;2022-07-29T07:37:38;98412.13;;;22.39;64.62
41140;BME280;26881;48.784;9.192;2022-07-29T07:43:02;98412.28;;;22.46;64.58
41140;BME280;26881;48.784;9.192;2022-07-29T07:48:23;98417.41;;;22.64;63.88
41140;BME280;26881;48.784;9.192;2022-07-29T07:53:45;98414.22;;;23.16;63.49
41140;BME280;26881;48.784;9.192;2022-07-29T07:59:10;98411.06;;;23.44;62.21
41140;BME280;26881;48.784;9.192;2022-07-29T08:04:32;98414.38;;;23.46;61.27
41140;BME280;26881;48.784;9.192;2022-07-29T08:09:54;98409.81;;;23.31;61.82
41140;BME280;26881;48.784;9.192;2022-07-29T08:15:16;98418.34;;;23.27;61.65
41140;BME280;26881;48.784;9.192;2022-07-29T08:20:38;98419.03;;;23.21;61.95
41140;BME280;26881;48.784;9.192;2022-07-29T08:26:01;98408.53;;;23.19;62.35
41140;BME280;26881;48.784;9.192;2022-07-29T08:31:22;98415.53;;;23.20;61.42
41140;BME280;26881;48.784;9.192;2022-07-29T08:36:44;98416.00;;;23.24;61.24
41140;BME280;26881;48.784;9.192;2022-07-29T08:42:11;98416.34;;;23.29;60.68
41140;BME280;26881;48.784;9.192;2022-07-29T08:47:33;98421.47;;;23.30;60.50
41140;BME280;26881;48.784;9.192;2022-07-29T08:52:57;98414.94;;;23.33;61.45
41140;BME280;26881;48.784;9.192;2022-07-29T08:58:21;98405.84;;;23.50;60.70
41140;BME280;26881;48.784;9.192;2022-07-29T09:03:46;98407.84;;;23.48;60.33
41140;BME280;26881;48.784;9.192;2022-07-29T09:09:08;98415.47;;;23.60;59.68
41140;BME280;26881;48.784;9.192;2022-07-29T09:14:30;98418.31;;;23.58;59.93
41140;BME280;26881;48.784;9.192;2022-07-29T09:20:08;98413.22;;;23.71;57.38
41140;BME280;26881;48.784;9.192;2022-07-29T09:25:38;98409.50;;;23.81;55.79
41140;BME280;26881;48.784;9.192;2022-07-29T09:31:01;98409.78;;;23.86;54.79
41140;BME280;26881;48.784;9.192;2022-07-29T09:36:24;98410.34;;;23.96;55.23
41140;BME280;26881;48.784;9.192;2022-07-29T09:41:53;98405.94;;;24.03;54.39
41140;BME280;26881;48.784;9.192;2022-07-29T09:47:17;98404.25;;;24.10;52.75
41140;BME280;26881;48.784;9.192;2022-07-29T09:52:50;98395.31;;;24.18;52.21
41140;BME280;26881;48.784;9.192;2022-07-29T09:58:18;98390.06;;;24.25;51.96
41140;BME280;26881;48.784;9.192;2022-07-29T10:03:52;98388.41;;;24.24;52.08
41140;BME280;26881;48.784;9.192;2022-07-29T10:09:15;98384.72;;;24.25;51.52
41140;BME280;26881;48.784;9.192;2022-07-29T10:14:42;98392.19;;;24.29;51.10
41140;BME280;26881;48.784;9.192;2022-07-29T10:20:04;98386.31;;;24.34;51.44
41140;BME280;26881;48.784;9.192;2022-07-29T10:25:33;98373.13;;;24.32;51.12
41140;BME280;26881;48.784;9.192;2022-07-29T10:31:01;98373.59;;;24.36;51.14
41140;BME280;26881;48.784;9.192;2022-07-29T10:42:20;98379.19;;;24.26;51.09
41140;BME280;26881;48.784;9.192;2022-07-29T10:48:04;98374.94;;;24.17;53.68
41140;BME280;26881;48.784;9.192;2022-07-29T10:53:51;98389.56;;;24.06;55.02
41140;BME280;26881;48.784;9.192;2022-07-29T11:15:56;98445.47;;;22.27;76.04
41140;BME280;26881;48.784;9.192;2022-07-29T11:21:48;98457.06;;;21.77;81.87
41140;BME280;26881;48.784;9.192;2022-07-29T11:27:19;98435.69;;;21.36;81.78
41140;BME280;26881;48.784;9.192;2022-07-29T11:32:43;98441.66;;;21.30;84.48
41140;BME280;26881;48.784;9.192;2022-07-29T11:49:13;98446.97;;;21.21;80.89
41140;BME280;26881;48.784;9.192;2022-07-29T11:54:43;98442.09;;;21.09;85.25
41140;BME280;26881;48.784;9.192;2022-07-29T12:00:31;98440.38;;;20.99;87.97
41140;BME280;26881;48.784;9.192;2022-07-29T12:05:53;98430.97;;;21.05;88.53
41140;BME280;26881;48.784;9.192;2022-07-29T12:11:19;98422.66;;;21.08;89.25
41140;BME280;26881;48.784;9.192;2022-07-29T12:16:43;98436.47;;;21.20;90.75
41140;BME280;26881;48.784;9.192;2022-07-29T12:22:05;98427.88;;;21.34;92.98
41140;BME280;26881;48.784;9.192;2022-07-29T12:27:27;98424.41;;;21.42;91.43
41140;BME280;26881;48.784;9.192;2022-07-29T12:32:52;98437.09;;;21.40;82.92
41140;BME280;26881;48.784;9.192;2022-07-29T12:38:14;98433.53;;;21.31;81.06
41140;BME280;26881;48.784;9.192;2022-07-29T12:43:36;98423.03;;;21.30;81.02
41140;BME280;26881;48.784;9.192;2022-07-29T12:48:58;98421.16;;;21.14;83.50
41140;BME280;26881;48.784;9.192;2022-07-29T12:54:20;98423.31;;;21.10;85.21
41140;BME280;26881;48.784;9.192;2022-07-29T12:59:42;98434.63;;;21.12;85.64
41140;BME280;26881;48.784;9.192;2022-07-29T13:05:05;98434.94;;;21.09;81.21
41140;BME280;26881;48.784;9.192;2022-07-29T13:10:27;98430.59;;;21.00;86.09
41140;BME280;26881;48.784;9.192;2022-07-29T13:16:06;98443.34;;;20.88;86.33
41140;BME280;26881;48.784;9.192;2022-07-29T13:21:29;98455.28;;;20.84;88.62
41140;BME280;26881;48.784;9.192;2022-07-29T13:26:51;98451.16;;;20.90;86.12
41140;BME280;26881;48.784;9.192;2022-07-29T13:32:13;98464.25;;;20.83;90.27
41140;BME280;26881;48.784;9.192;2022-07-29T13:37:35;98453.72;;;20.73;91.59
41140;BME280;26881;48.784;9.192;2022-07-29T13:43:00;98428.47;;;20.69;92.20
41140;BME280;26881;48.784;9.192;2022-07-29T13:48:21;98425.84;;;20.77;88.01
41140;BME280;26881;48.784;9.192;2022-07-29T13:53:43;98424.69;;;20.80;89.21
41140;BME280;26881;48.784;9.192;2022-07-29T13:59:05;98414.41;;;20.85;91.19
41140;BME280;26881;48.784;9.192;2022-07-29T14:04:27;98406.84;;;20.98;91.64
41140;BME280;26881;48.784;9.192;2022-07-29T14:09:49;98405.53;;;21.11;92.77
41140;BME280;26881;48.784;9.192;2022-07-29T14:15:11;98403.06;;;21.17;92.69
41140;BME280;26881;48.784;9.192;2022-07-29T14:20:33;98414.56;;;21.26;89.73
41140;BME280;26881;48.784;9.192;2022-07-29T14:25:55;98400.94;;;21.37;94.56
41140;BME280;26881;48.784;9.192;2022-07-29T14:31:17;98402.81;;;21.45;90.15
41140;BME280;26881;48.784;9.192;2022-07-29T14:36:39;98402.66;;;21.55;94.68
41140;BME280;26881;48.784;9.192;2022-07-29T14:42:01;98401.50;;;21.57;96.70
41140;BME280;26881;48.784;9.192;2022-07-29T14:47:22;98402.84;;;21.61;91.93
41140;BME280;26881;48.784;9.192;2022-07-29T14:52:45;98403.53;;;21.80;93.22
41140;BME280;26881;48.784;9.192;2022-07-29T14:58:07;98411.16;;;21.83;94.12
41140;BME280;26881;48.784;9.192;2022-07-29T15:03:36;98415.50;;;21.92;92.90
41140;BME280;26881;48.784;9.192;2022-07-29T15:08:58;98407.84;;;21.97;92.79
41140;BME280;26881;48.784;9.192;2022-07-29T15:14:20;98412.81;;;22.00;95.01
41140;BME280;26881;48.784;9.192;2022-07-29T15:19:44;98410.50;;;22.05;88.44
41140;BME280;26881;48.784;9.192;2022-07-29T15:25:06;98412.31;;;22.13;89.44
41140;BME280;26881;48.784;9.192;2022-07-29T15:30:31;98401.66;;;22.21;86.28
41140;BME280;26881;48.784;9.192;2022-07-29T15:35:56;98409.66;;;22.29;87.70
41140;BME280;26881;48.784;9.192;2022-07-29T15:41:18;98408.16;;;22.27;90.91
41140;BME280;26881;48.784;9.192;2022-07-29T15:46:40;98410.00;;;22.26;90.66
41140;BME280;26881;48.784;9.192;2022-07-29T15:52:22;98405.34;;;22.28;89.95
41140;BME280;26881;48.784;9.192;2022-07-29T15:57:46;98415.16;;;22.36;85.33
41140;BME280;26881;48.784;9.192;2022-07-29T16:03:08;98415.66;;;22.32;87.44
41140;BME280;26881;48.784;9.192;2022-07-29T16:08:30;98410.50;;;22.38;85.76
41140;BME280;26881;48.784;9.192;2022-07-29T16:13:52;98410.50;;;22.38;86.94
41140;BME280;26881;48.784;9.192;2022-07-29T16:19:14;98413.94;;;22.47;82.16
41140;BME280;26881;48.784;9.192;2022-07-29T16:24:36;98414.59;;;22.49;83.60
41140;BME280;26881;48.784;9.192;2022-07-29T16:29:59;98416.44;;;22.48;85.02
41140;BME280;26881;48.784;9.192;2022-07-29T16:35:22;98411.78;;;22.42;85.39
41140;BME280;26881;48.784;9.192;2022-07-29T16:40:59;98416.78;;;22.45;83.94
41140;BME280;26881;48.784;9.192;2022-07-29T16:46:21;98417.94;;;22.51;81.25
41140;BME280;26881;48.784;9.192;2022-07-29T16:51:46;98412.28;;;22.54;80.62
41140;BME280;26881;48.784;9.192;2022-07-29T16:57:10;98424.13;;;22.43;80.63
41140;BME280;26881;48.784;9.192;2022-07-29T17:02:32;98415.31;;;22.43;79.59
41140;BME280;26881;48.784;9.192;2022-07-29T17:07:54;98425.78;;;22.44;79.64
41140;BME280;26881;48.784;9.192;2022-07-29T17:13:17;98425.97;;;22.43;80.68
41140;BME280;26881;48.784;9.192;2022-07-29T17:18:39;98426.75;;;22.51;77.24
41140;BME280;26881;48.784;9.192;2022-07-29T17:24:00;98431.25;;;22.51;79.00
41140;BME280;26881;48.784;9.192;2022-07-29T17:29:22;98432.75;;;22.54;78.29
41140;BME280;26881;48.784;9.192;2022-07-29T17:34:44;98437.75;;;22.57;78.65
41140;BME280;26881;48.784;9.192;2022-07-29T17:40:06;98439.41;;;22.58;79.31
41140;BME280;26881;48.784;9.192;2022-07-29T17:45:28;98436.06;;;22.64;75.35
41140;BME280;26881;48.784;9.192;2022-07-29T17:51:10;98447.88;;;22.69;73.10
41140;BME280;26881;48.784;9.192;2022-07-29T17:56:32;98438.19;;;22.77;72.98
41140;BME280;26881;48.784;9.192;2022-07-29T18:01:54;98444.53;;;22.76;74.26
41140;BME280;26881;48.784;9.192;2022-07-29T18:07:16;98447.69;;;22.79;73.86
41140;BME280;26881;48.784;9.192;2022-07-29T18:12:39;98446.34;;;22.83;73.81
41140;BME280;26881;48.784;9.192;2022-07-29T18:18:01;98452.69;;;22.82;74.37
41140;BME280;26881;48.784;9.192;2022-07-29T18:23:23;98448.84;;;22.85;74.08
41140;BME280;26881;48.784;9.192;2022-07-29T18:28:45;98454.19;;;22.85;74.05
41140;BME280;26881;48.784;9.192;2022-07-29T18:34:08;98454.19;;;22.85;73.11
41140;BME280;26881;48.784;9.192;2022-07-29T18:39:29;98451.31;;;22.86;73.16
41140;BME280;26881;48.784;9.192;2022-07-29T18:44:51;98453.50;;;22.83;73.94
41140;BME280;26881;48.784;9.192;2022-07-29T18:50:15;98447.38;;;22.74;76.40
41140;BME280;26881;48.784;9.192;2022-07-29T18:55:37;98447.72;;;22.63;77.36
41140;BME280;26881;48.784;9.192;2022-07-29T19:00:58;98454.59;;;22.57;76.85
41140;BME280;26881;48.784;9.192;2022-07-29T19:06:21;98465.44;;;22.47;77.54
41140;BME280;26881;48.784;9.192;2022-07-29T19:11:46;98475.25;;;22.39;78.13
41140;BME280;26881;48.784;9.192;2022-07-29T19:17:08;98478.59;;;22.33;79.24
41140;BME280;26881;48.784;9.192;2022-07-29T19:22:30;98487.91;;;22.20;77.55
41140;BME280;26881;48.784;9.192;2022-07-29T19:27:51;98489.41;;;22.15;79.32
41140;BME280;26881;48.784;9.192;2022-07-29T19:33:13;98497.72;;;22.03;78.95
41140;BME280;26881;48.784;9.192;2022-07-29T19:38:38;98503.69;;;21.97;78.88
41140;BME280;26881;48.784;9.192;2022-07-29T19:44:00;98506.69;;;21.94;79.12
41140;BME280;26881;48.784;9.192;2022-07-29T19:49:21;98516.34;;;21.87;78.46
41140;BME280;26881;48.784;9.192;2022-07-29T19:54:43;98520.13;;;21.76;76.53
41140;BME280;26881;48.784;9.192;2022-07-29T20:00:06;98517.28;;;21.70;76.68
41140;BME280;26881;48.784;9.192;2022-07-29T20:05:31;98517.97;;;21.63;77.16
41140;BME280;26881;48.784;9.192;2022-07-29T20:10:53;98517.63;;;21.66;75.35
41140;BME280;26881;48.784;9.192;2022-07-29T20:16:16;98524.94;;;21.56;74.83
41140;BME280;26881;48.784;9.192;2022-07-29T20:21:38;98534.41;;;21.59;74.16
41140;BME280;26881;48.784;9.192;2022-07-29T20:27:00;98534.72;;;21.56;73.58
41140;BME280;26881;48.784;9.192;2022-07-29T20:32:22;98523.56;;;21.52;72.74
41140;BME280;26881;48.784;9.192;2022-07-29T20:37:44;98512.75;;;21.54;71.97
41140;BME280;26881;48.784;9.192;2022-07-29T20:43:16;98512.94;;;21.52;71.84
41140;BME280;26881;48.784;9.192;2022-07-29T20:48:38;98514.94;;;21.58;68.88
41140;BME280;26881;48.784;9.192;2022-07-29T20:54:01;98519.56;;;21.48;68.55
41140;BME280;26881;48.784;9.192;2022-07-29T20:59:24;98523.50;;;21.36;68.88
41140;BME280;26881;48.784;9.192;2022-07-29T21:04:45;98539.50;;;21.44;67.34
41140;BME280;26881;48.784;9.192;2022-07-29T21:10:07;98546.44;;;21.37;69.10
41140;BME280;26881;48.784;9.192;2022-07-29T21:15:29;98536.13;;;21.34;71.66
41140;BME280;26881;48.784;9.192;2022-07-29T21:20:53;98531.88;;;21.15;75.98
41140;BME280;26881;48.784;9.192;2022-07-29T21:26:15;98542.31;;;21.08;77.99
41140;BME280;26881;48.784;9.192;2022-07-29T21:31:36;98547.31;;;21.11;79.76
41140;BME280;26881;48.784;9.192;2022-07-29T21:36:58;98541.84;;;21.13;79.46
41140;BME280;26881;48.784;9.192;2022-07-29T21:42:21;98542.59;;;20.97;80.16
41140;BME280;26881;48.784;9.192;2022-07-29T21:47:43;98555.38;;;20.93;80.46
41140;BME280;26881;48.784;9.192;2022-07-29T21:53:04;98550.53;;;20.89;79.77
41140;BME280;26881;48.784;9.192;2022-07-29T21:58:27;98547.47;;;20.83;80.55
41140;BME280;26881;48.784;9.192;2022-07-29T22:03:49;98545.09;;;20.72;79.76
41140;BME280;26881;48.784;9.192;2022-07-29T22:09:11;98548.16;;;20.59;78.03
41140;BME280;26881;48.784;9.192;2022-07-29T22:14:33;98555.28;;;20.41;76.63
41140;BME280;26881;48.784;9.192;2022-07-29T22:19:54;98547.78;;;20.36;74.87
41140;BME280;26881;48.784;9.192;2022-07-29T22:25:19;98553.69;;;20.30;74.09
41140;BME280;26881;48.784;9.192;2022-07-29T22:30:41;98558.25;;;20.20;74.63
41140;BME280;26881;48.784;9.192;2022-07-29T22:36:03;98565.63;;;20.08;74.53
41140;BME280;26881;48.784;9.192;2022-07-29T22:41:25;98558.84;;;20.14;74.85
41140;BME280;26881;48.784;9.192;2022-07-29T22:46:47;98556.50;;;19.93;73.78
41140;BME280;26881;48.784;9.192;2022-07-29T22:52:08;98560.53;;;19.79;73.01
41140;BME280;26881;48.784;9.192;2022-07-29T22:57:30;98562.56;;;19.85;73.18
41140;BME280;26881;48.784;9.192;2022-07-29T23:02:52;98561.28;;;19.89;70.12
41140;BME280;26881;48.784;9.192;2022-07-29T23:08:14;98556.34;;;19.94;69.13
41140;BME280;26881;48.784;9.192;2022-07-29T23:13:36;98554.47;;;19.87;68.15
41140;BME280;26881;48.784;9.192;2022-07-29T23:18:58;98560.06;;;19.84;67.96
41140;BME280;26881;48.784;9.192;2022-07-29T23:24:20;98560.06;;;19.84;67.11
41140;BME280;26881;48.784;9.192;2022-07-29T23:29:42;98555.88;;;19.81;66.75
41140;BME280;26881;48.784;9.192;2022-07-29T23:35:04;98550.56;;;19.81;66.39
41140;BME280;26881;48.784;9.192;2022-07-29T23:40:27;98560.34;;;19.81;66.28
41140;BME280;26881;48.784;9.192;2022-07-29T23:45:49;98566.84;;;19.96;65.64
41140;BME280;26881;48.784;9.192;2022-07-29T23:51:14;98582.13;;;20.02;65.26
41140;BME280;26881;48.784;9.192;2022-07-29T23:56:36;98588.06;;;19.96;65.48
